Reading, MN

8:24 PM CST on December 22, 2014 (GMT -0600)
Pipestone Municipal | Change Station
CLOSE
Current Station
Airport
Location: Pipestone,
Elevation: 1736 ft
Nearby Weather Stations

Elev 1736 ft 43.98 °N, 96.30 °W | Updated 10 minutes ago

Overcast
Overcast
36 °F
Feels Like 28 °F
N
10
Wind Variable Wind from ESE

Today
High -- | Low -- °F
--% Chance of Precip.
Yesterday
High -- | Low -- °F
Precip. -- in
7:54 AM 4:49 PM
New Moon, 1% visible
Pressure 29.47 in
Visibility 4.0 miles
Clouds Overcast 300 ft
Windchill 28 °F
Dew Point 36 °F
Humidity 100%
Rainfall 0.05 in
Snow Depth Not available.
UV 0 out of 12
Pollen .10 out of 12
Air Quality Not available.
Flu Activity Not available.
METAR KPQN 230214Z AUTO 12009KT 4SM -DZ OVC003 02/02 A2947 RMK AO2

More Conditions Fewer Conditions

Pressure 29.47 in
Visibility 4.0 miles
Clouds Overcast 300 ft
Windchill 28 °F
Dew Point 36 °F
Humidity 100%
Rainfall 0.05 in
Snow Depth Not available.
UV 0 out of 12
Pollen .10 out of 12
Air Quality Not available.
Flu Activity Not available.
METAR KPQN 230214Z AUTO 12009KT 4SM -DZ OVC003 02/02 A2947 RMK AO2

More Conditions Fewer Conditions

10-Day Weather Forecast

Almanac

Astronomy

Dec. 22, 2014 Rise Set
Actual Time
Civil Twilight
Nautical Twilight
Astronomical Twilight
Moon
Length of Visible Light
Length of Day
Tomorrow will be .
, % of the Moon is Illuminated

Today's Extremes

State Highs State Lows

Community

WunderPhotos

Upload Photos

1,779,761 photos uploaded!

WunderBlogs® & News

Nearby

Air Quality

  Air Quality AQ Index Pollutant
Not available.

Snow Depth

Station Depth Elevation

Earthquake Activity

City Distance Mag. Time & Date
Minimum magnitude displayed is 2.5.

Coastal Water Temperatures

Place Temperature

Nearby Weather Stations